San Francisco, CA (94128)

3:25 PM PDT on July 24, 2016 (GMT -0700)
bel air | | Change Station

Elev 7 ft 37.63 °N, 122.41 °W | Updated 7 minutes ago

Partly Cloudy
Partly Cloudy
68.0 °F
Feels Like 68.0 °F
N
8.9
Wind Variable Wind from WSW

Today
High -- | Low -- °F
--% Chance of Precip.
Yesterday
High -- | Low -- °F
Precip. -- in
Pressure 29.87 in
Visibility 10.0 miles
Clouds Few 1000 ft
Dew Point 52 °F
Humidity 57%
Rainfall 0.00 in
Snow Depth Not available.
6:07 AM 8:24 PM
Waning Gibbous, 72% visible
METAR KSFO 242156Z 30021KT 10SM FEW010 20/11 A2987 RMK AO2 SLP113 T02000111
Pressure 29.87 in
Visibility 10.0 miles
Clouds Few 1000 ft
Dew Point 52 °F
Humidity 57%
Rainfall 0.00 in
Snow Depth Not available.
6:07 AM 8:24 PM
Waning Gibbous, 72% visible
METAR KSFO 242156Z 30021KT 10SM FEW010 20/11 A2987 RMK AO2 SLP113 T02000111

10-Day Weather Forecast

Almanac

Astronomy

Jul. 24, 2016 Rise Set
Actual Time
Civil Twilight
Nautical Twilight
Astronomical Twilight
Moon
Length of Visible Light
Length of Day
Tomorrow will be .
, % of the Moon is Illuminated

Today's Extremes

State Highs State Lows

Community

WunderPhotos

Upload Photos

1,927,203 photos uploaded!

WunderBlog® & News

Nearby

Air Quality

  Air Quality AQ Index Pollutant
Not available.

Snow Depth

Station Depth Elevation

Earthquake Activity

City Distance Mag. Time & Date
Minimum magnitude displayed is 2.5.

Coastal Water Temperatures

Place Temperature

Stations

Nearby Weather Stations

Station Location Temp. Windchill Dew Point Humidity Wind Precip. Elev Updated Type
                   

Watches & Warnings

There are currently no watches in effect.